sensor_id;sensor_type;location;lat;lon;timestamp;P1;durP1;ratioP1;P2;durP2;ratioP2
21315;SDS011;10817;55.820;13.030;2023-03-23T00:00:58;105.30;;;38.60;;
21315;SDS011;10817;55.820;13.030;2023-03-23T00:03:26;109.13;;;39.42;;
21315;SDS011;10817;55.820;13.030;2023-03-23T00:05:54;109.50;;;39.30;;
21315;SDS011;10817;55.820;13.030;2023-03-23T00:08:29;109.65;;;38.95;;
21315;SDS011;10817;55.820;13.030;2023-03-23T00:10:58;113.55;;;38.35;;
21315;SDS011;10817;55.820;13.030;2023-03-23T00:13:27;105.85;;;39.00;;
21315;SDS011;10817;55.820;13.030;2023-03-23T00:15:55;107.05;;;39.22;;
21315;SDS011;10817;55.820;13.030;2023-03-23T00:18:25;117.95;;;39.58;;
21315;SDS011;10817;55.820;13.030;2023-03-23T00:20:54;106.38;;;38.47;;
21315;SDS011;10817;55.820;13.030;2023-03-23T00:23:23;109.55;;;38.22;;
21315;SDS011;10817;55.820;13.030;2023-03-23T00:25:51;98.03;;;38.50;;
21315;SDS011;10817;55.820;13.030;2023-03-23T00:28:23;121.65;;;42.60;;
21315;SDS011;10817;55.820;13.030;2023-03-23T00:30:55;112.00;;;40.33;;
21315;SDS011;10817;55.820;13.030;2023-03-23T00:33:23;107.28;;;40.53;;
21315;SDS011;10817;55.820;13.030;2023-03-23T00:35:51;111.03;;;39.00;;
21315;SDS011;10817;55.820;13.030;2023-03-23T00:38:19;114.93;;;41.15;;
21315;SDS011;10817;55.820;13.030;2023-03-23T00:40:47;111.45;;;40.95;;
21315;SDS011;10817;55.820;13.030;2023-03-23T00:43:14;113.38;;;41.17;;
21315;SDS011;10817;55.820;13.030;2023-03-23T00:45:43;117.55;;;40.97;;
21315;SDS011;10817;55.820;13.030;2023-03-23T00:48:17;112.25;;;40.42;;
21315;SDS011;10817;55.820;13.030;2023-03-23T00:50:45;117.50;;;40.90;;
21315;SDS011;10817;55.820;13.030;2023-03-23T00:53:12;106.40;;;39.72;;
21315;SDS011;10817;55.820;13.030;2023-03-23T00:55:40;99.20;;;40.35;;
21315;SDS011;10817;55.820;13.030;2023-03-23T00:58:07;98.70;;;38.40;;
21315;SDS011;10817;55.820;13.030;2023-03-23T01:00:36;100.30;;;38.83;;
21315;SDS011;10817;55.820;13.030;2023-03-23T01:03:05;96.80;;;39.13;;
21315;SDS011;10817;55.820;13.030;2023-03-23T01:05:37;96.72;;;40.13;;
21315;SDS011;10817;55.820;13.030;2023-03-23T01:08:05;90.65;;;38.33;;
21315;SDS011;10817;55.820;13.030;2023-03-23T01:10:33;99.15;;;39.20;;
21315;SDS011;10817;55.820;13.030;2023-03-23T01:13:03;92.38;;;38.30;;
21315;SDS011;10817;55.820;13.030;2023-03-23T01:15:30;92.00;;;37.85;;
21315;SDS011;10817;55.820;13.030;2023-03-23T01:17:58;100.30;;;40.58;;
21315;SDS011;10817;55.820;13.030;2023-03-23T01:20:26;88.55;;;37.30;;
21315;SDS011;10817;55.820;13.030;2023-03-23T01:22:54;83.35;;;37.67;;
21315;SDS011;10817;55.820;13.030;2023-03-23T01:25:25;79.72;;;37.15;;
21315;SDS011;10817;55.820;13.030;2023-03-23T01:27:52;94.07;;;38.78;;
21315;SDS011;10817;55.820;13.030;2023-03-23T01:30:20;91.18;;;40.47;;
21315;SDS011;10817;55.820;13.030;2023-03-23T01:32:47;92.82;;;39.25;;
21315;SDS011;10817;55.820;13.030;2023-03-23T01:35:14;87.30;;;39.92;;
21315;SDS011;10817;55.820;13.030;2023-03-23T01:37:43;97.50;;;41.15;;
21315;SDS011;10817;55.820;13.030;2023-03-23T01:40:10;98.22;;;41.88;;
21315;SDS011;10817;55.820;13.030;2023-03-23T01:42:38;105.75;;;42.75;;
21315;SDS011;10817;55.820;13.030;2023-03-23T01:45:21;110.20;;;43.47;;
21315;SDS011;10817;55.820;13.030;2023-03-23T01:47:50;107.03;;;42.97;;
21315;SDS011;10817;55.820;13.030;2023-03-23T01:50:19;111.55;;;44.85;;
21315;SDS011;10817;55.820;13.030;2023-03-23T01:52:49;111.82;;;44.65;;
21315;SDS011;10817;55.820;13.030;2023-03-23T01:55:17;105.75;;;43.70;;
21315;SDS011;10817;55.820;13.030;2023-03-23T01:57:46;118.97;;;43.47;;
21315;SDS011;10817;55.820;13.030;2023-03-23T02:00:15;104.18;;;41.15;;
21315;SDS011;10817;55.820;13.030;2023-03-23T02:02:50;101.55;;;40.60;;
21315;SDS011;10817;55.820;13.030;2023-03-23T02:05:21;95.07;;;39.35;;
21315;SDS011;10817;55.820;13.030;2023-03-23T02:07:52;94.88;;;39.40;;
21315;SDS011;10817;55.820;13.030;2023-03-23T02:10:19;89.95;;;37.10;;
21315;SDS011;10817;55.820;13.030;2023-03-23T02:12:46;91.95;;;37.50;;
21315;SDS011;10817;55.820;13.030;2023-03-23T02:15:14;91.55;;;38.25;;
21315;SDS011;10817;55.820;13.030;2023-03-23T02:17:44;83.40;;;37.17;;
21315;SDS011;10817;55.820;13.030;2023-03-23T02:20:17;74.05;;;36.20;;
21315;SDS011;10817;55.820;13.030;2023-03-23T02:25:40;77.28;;;34.17;;
21315;SDS011;10817;55.820;13.030;2023-03-23T02:28:25;73.85;;;33.95;;
21315;SDS011;10817;55.820;13.030;2023-03-23T02:31:00;72.22;;;33.30;;
21315;SDS011;10817;55.820;13.030;2023-03-23T02:33:38;74.32;;;33.58;;
21315;SDS011;10817;55.820;13.030;2023-03-23T02:36:13;77.95;;;33.95;;
21315;SDS011;10817;55.820;13.030;2023-03-23T02:38:43;67.95;;;32.33;;
21315;SDS011;10817;55.820;13.030;2023-03-23T02:41:16;76.55;;;33.70;;
21315;SDS011;10817;55.820;13.030;2023-03-23T02:43:45;76.63;;;34.38;;
21315;SDS011;10817;55.820;13.030;2023-03-23T02:46:14;65.93;;;33.05;;
21315;SDS011;10817;55.820;13.030;2023-03-23T02:48:43;68.63;;;33.92;;
21315;SDS011;10817;55.820;13.030;2023-03-23T02:51:11;67.57;;;33.22;;
21315;SDS011;10817;55.820;13.030;2023-03-23T02:53:40;71.95;;;33.83;;
21315;SDS011;10817;55.820;13.030;2023-03-23T02:56:09;67.63;;;32.60;;
21315;SDS011;10817;55.820;13.030;2023-03-23T02:58:37;65.60;;;33.53;;
21315;SDS011;10817;55.820;13.030;2023-03-23T03:01:16;65.90;;;32.28;;
21315;SDS011;10817;55.820;13.030;2023-03-23T03:04:06;70.70;;;33.50;;
21315;SDS011;10817;55.820;13.030;2023-03-23T03:06:40;69.07;;;31.92;;
21315;SDS011;10817;55.820;13.030;2023-03-23T03:09:10;69.18;;;33.58;;
21315;SDS011;10817;55.820;13.030;2023-03-23T03:11:41;70.00;;;34.22;;
21315;SDS011;10817;55.820;13.030;2023-03-23T03:14:11;75.68;;;36.53;;
21315;SDS011;10817;55.820;13.030;2023-03-23T03:16:43;72.78;;;34.70;;
21315;SDS011;10817;55.820;13.030;2023-03-23T03:19:13;67.18;;;33.45;;
21315;SDS011;10817;55.820;13.030;2023-03-23T03:21:42;71.90;;;33.10;;
21315;SDS011;10817;55.820;13.030;2023-03-23T03:24:13;72.22;;;33.55;;
21315;SDS011;10817;55.820;13.030;2023-03-23T03:26:42;75.43;;;33.65;;
21315;SDS011;10817;55.820;13.030;2023-03-23T03:29:21;71.18;;;32.65;;
21315;SDS011;10817;55.820;13.030;2023-03-23T03:31:52;74.20;;;34.72;;
21315;SDS011;10817;55.820;13.030;2023-03-23T03:34:25;73.15;;;34.47;;
21315;SDS011;10817;55.820;13.030;2023-03-23T03:36:53;89.47;;;36.47;;
21315;SDS011;10817;55.820;13.030;2023-03-23T03:39:24;81.22;;;34.67;;
21315;SDS011;10817;55.820;13.030;2023-03-23T03:41:51;80.80;;;34.70;;
21315;SDS011;10817;55.820;13.030;2023-03-23T03:44:19;86.55;;;35.75;;
21315;SDS011;10817;55.820;13.030;2023-03-23T03:46:46;90.57;;;37.50;;
21315;SDS011;10817;55.820;13.030;2023-03-23T03:49:13;89.13;;;36.50;;
21315;SDS011;10817;55.820;13.030;2023-03-23T03:51:43;92.22;;;36.47;;
21315;SDS011;10817;55.820;13.030;2023-03-23T03:54:17;90.10;;;35.70;;
21315;SDS011;10817;55.820;13.030;2023-03-23T03:56:45;94.32;;;36.55;;
21315;SDS011;10817;55.820;13.030;2023-03-23T03:59:38;93.45;;;37.33;;
21315;SDS011;10817;55.820;13.030;2023-03-23T04:02:41;90.00;;;36.03;;
21315;SDS011;10817;55.820;13.030;2023-03-23T04:05:10;95.15;;;36.65;;
21315;SDS011;10817;55.820;13.030;2023-03-23T04:07:39;103.28;;;39.42;;
21315;SDS011;10817;55.820;13.030;2023-03-23T04:10:08;117.65;;;40.60;;
21315;SDS011;10817;55.820;13.030;2023-03-23T04:12:36;114.20;;;39.03;;
21315;SDS011;10817;55.820;13.030;2023-03-23T04:15:22;109.32;;;39.28;;
21315;SDS011;10817;55.820;13.030;2023-03-23T04:17:49;119.38;;;39.47;;
21315;SDS011;10817;55.820;13.030;2023-03-23T04:20:17;124.03;;;40.40;;
21315;SDS011;10817;55.820;13.030;2023-03-23T04:22:49;117.30;;;41.15;;
21315;SDS011;10817;55.820;13.030;2023-03-23T04:25:18;111.60;;;40.95;;
21315;SDS011;10817;55.820;13.030;2023-03-23T04:27:48;114.68;;;40.55;;
21315;SDS011;10817;55.820;13.030;2023-03-23T04:30:23;109.45;;;40.47;;
21315;SDS011;10817;55.820;13.030;2023-03-23T04:33:06;107.95;;;39.38;;
21315;SDS011;10817;55.820;13.030;2023-03-23T04:35:34;109.00;;;40.35;;
21315;SDS011;10817;55.820;13.030;2023-03-23T04:38:16;112.53;;;41.08;;
21315;SDS011;10817;55.820;13.030;2023-03-23T04:40:47;96.40;;;38.25;;
21315;SDS011;10817;55.820;13.030;2023-03-23T04:43:36;101.93;;;38.03;;
21315;SDS011;10817;55.820;13.030;2023-03-23T04:46:29;105.68;;;39.35;;
21315;SDS011;10817;55.820;13.030;2023-03-23T04:49:01;103.25;;;38.58;;
21315;SDS011;10817;55.820;13.030;2023-03-23T04:51:33;99.47;;;38.80;;
21315;SDS011;10817;55.820;13.030;2023-03-23T04:54:12;92.65;;;36.67;;
21315;SDS011;10817;55.820;13.030;2023-03-23T04:56:42;97.57;;;38.10;;
21315;SDS011;10817;55.820;13.030;2023-03-23T04:59:13;90.68;;;37.00;;
21315;SDS011;10817;55.820;13.030;2023-03-23T05:01:47;87.55;;;38.17;;
21315;SDS011;10817;55.820;13.030;2023-03-23T05:04:17;91.40;;;35.67;;
21315;SDS011;10817;55.820;13.030;2023-03-23T05:07:10;93.20;;;38.00;;
21315;SDS011;10817;55.820;13.030;2023-03-23T05:09:48;93.03;;;37.45;;
21315;SDS011;10817;55.820;13.030;2023-03-23T05:12:19;90.47;;;37.08;;
21315;SDS011;10817;55.820;13.030;2023-03-23T05:14:52;93.43;;;36.35;;
21315;SDS011;10817;55.820;13.030;2023-03-23T05:17:23;92.90;;;37.55;;
21315;SDS011;10817;55.820;13.030;2023-03-23T05:19:53;93.35;;;35.80;;
21315;SDS011;10817;55.820;13.030;2023-03-23T05:22:41;95.32;;;37.38;;
21315;SDS011;10817;55.820;13.030;2023-03-23T05:25:12;90.63;;;35.15;;
21315;SDS011;10817;55.820;13.030;2023-03-23T05:27:45;85.30;;;33.80;;
21315;SDS011;10817;55.820;13.030;2023-03-23T05:30:36;86.95;;;36.80;;
21315;SDS011;10817;55.820;13.030;2023-03-23T05:33:06;88.90;;;35.63;;
21315;SDS011;10817;55.820;13.030;2023-03-23T05:35:50;91.13;;;36.15;;
21315;SDS011;10817;55.820;13.030;2023-03-23T05:38:24;94.07;;;33.30;;
21315;SDS011;10817;55.820;13.030;2023-03-23T05:40:54;78.53;;;34.85;;
21315;SDS011;10817;55.820;13.030;2023-03-23T05:43:27;79.60;;;33.90;;
21315;SDS011;10817;55.820;13.030;2023-03-23T05:46:17;84.00;;;35.75;;
21315;SDS011;10817;55.820;13.030;2023-03-23T05:48:45;78.00;;;34.20;;
21315;SDS011;10817;55.820;13.030;2023-03-23T05:51:15;80.32;;;34.60;;
21315;SDS011;10817;55.820;13.030;2023-03-23T05:53:44;76.55;;;35.38;;
21315;SDS011;10817;55.820;13.030;2023-03-23T05:56:15;83.70;;;34.95;;
21315;SDS011;10817;55.820;13.030;2023-03-23T05:59:11;82.43;;;35.28;;
21315;SDS011;10817;55.820;13.030;2023-03-23T06:01:42;80.63;;;35.92;;
21315;SDS011;10817;55.820;13.030;2023-03-23T06:04:09;75.55;;;33.88;;
21315;SDS011;10817;55.820;13.030;2023-03-23T06:06:47;85.45;;;33.80;;
21315;SDS011;10817;55.820;13.030;2023-03-23T06:09:15;84.72;;;34.67;;
21315;SDS011;10817;55.820;13.030;2023-03-23T06:12:02;74.28;;;32.97;;
21315;SDS011;10817;55.820;13.030;2023-03-23T06:14:41;70.63;;;32.33;;
21315;SDS011;10817;55.820;13.030;2023-03-23T06:17:09;66.95;;;31.60;;
21315;SDS011;10817;55.820;13.030;2023-03-23T06:19:36;66.47;;;31.35;;
21315;SDS011;10817;55.820;13.030;2023-03-23T06:22:13;62.35;;;29.60;;
21315;SDS011;10817;55.820;13.030;2023-03-23T06:25:04;68.25;;;30.02;;
21315;SDS011;10817;55.820;13.030;2023-03-23T06:27:39;64.00;;;29.38;;
21315;SDS011;10817;55.820;13.030;2023-03-23T06:30:07;66.15;;;28.00;;
21315;SDS011;10817;55.820;13.030;2023-03-23T06:32:35;59.65;;;29.00;;
21315;SDS011;10817;55.820;13.030;2023-03-23T06:35:07;62.65;;;29.13;;
21315;SDS011;10817;55.820;13.030;2023-03-23T06:37:53;62.30;;;28.52;;
21315;SDS011;10817;55.820;13.030;2023-03-23T06:40:31;61.22;;;28.48;;
21315;SDS011;10817;55.820;13.030;2023-03-23T06:43:00;55.67;;;26.77;;
21315;SDS011;10817;55.820;13.030;2023-03-23T06:45:33;53.47;;;25.70;;
21315;SDS011;10817;55.820;13.030;2023-03-23T06:48:23;51.83;;;25.75;;
21315;SDS011;10817;55.820;13.030;2023-03-23T06:50:51;45.58;;;24.85;;
21315;SDS011;10817;55.820;13.030;2023-03-23T06:53:20;51.38;;;24.27;;
21315;SDS011;10817;55.820;13.030;2023-03-23T06:55:49;48.85;;;24.25;;
21315;SDS011;10817;55.820;13.030;2023-03-23T06:58:18;50.72;;;24.45;;
21315;SDS011;10817;55.820;13.030;2023-03-23T07:00:46;50.83;;;25.27;;
21315;SDS011;10817;55.820;13.030;2023-03-23T07:03:15;53.45;;;25.00;;
21315;SDS011;10817;55.820;13.030;2023-03-23T07:05:45;51.38;;;24.02;;
21315;SDS011;10817;55.820;13.030;2023-03-23T07:08:14;51.55;;;24.38;;
21315;SDS011;10817;55.820;13.030;2023-03-23T07:10:46;41.30;;;23.70;;
21315;SDS011;10817;55.820;13.030;2023-03-23T07:13:16;41.55;;;20.65;;
21315;SDS011;10817;55.820;13.030;2023-03-23T07:15:50;39.22;;;20.83;;
21315;SDS011;10817;55.820;13.030;2023-03-23T07:18:18;37.05;;;19.23;;
21315;SDS011;10817;55.820;13.030;2023-03-23T07:20:47;34.90;;;18.60;;
21315;SDS011;10817;55.820;13.030;2023-03-23T07:23:15;33.78;;;17.75;;
21315;SDS011;10817;55.820;13.030;2023-03-23T07:25:49;31.95;;;16.50;;
21315;SDS011;10817;55.820;13.030;2023-03-23T07:28:21;28.25;;;14.27;;
21315;SDS011;10817;55.820;13.030;2023-03-23T07:30:53;26.30;;;13.18;;
21315;SDS011;10817;55.820;13.030;2023-03-23T07:33:20;21.92;;;11.43;;
21315;SDS011;10817;55.820;13.030;2023-03-23T07:35:48;22.15;;;9.95;;
21315;SDS011;10817;55.820;13.030;2023-03-23T07:38:17;17.70;;;9.40;;
21315;SDS011;10817;55.820;13.030;2023-03-23T07:40:47;20.65;;;10.32;;
21315;SDS011;10817;55.820;13.030;2023-03-23T07:43:16;11.95;;;8.32;;
21315;SDS011;10817;55.820;13.030;2023-03-23T07:46:04;12.07;;;7.28;;
21315;SDS011;10817;55.820;13.030;2023-03-23T07:48:42;16.17;;;7.00;;
21315;SDS011;10817;55.820;13.030;2023-03-23T07:51:10;15.35;;;7.00;;
21315;SDS011;10817;55.820;13.030;2023-03-23T07:53:38;14.38;;;6.03;;
21315;SDS011;10817;55.820;13.030;2023-03-23T07:56:26;9.00;;;5.20;;
21315;SDS011;10817;55.820;13.030;2023-03-23T07:59:03;8.85;;;4.20;;
21315;SDS011;10817;55.820;13.030;2023-03-23T08:01:32;9.23;;;4.40;;
21315;SDS011;10817;55.820;13.030;2023-03-23T08:04:18;8.70;;;3.83;;
21315;SDS011;10817;55.820;13.030;2023-03-23T08:07:12;5.55;;;3.47;;
21315;SDS011;10817;55.820;13.030;2023-03-23T08:10:01;5.22;;;3.20;;
21315;SDS011;10817;55.820;13.030;2023-03-23T08:12:28;4.20;;;3.28;;
21315;SDS011;10817;55.820;13.030;2023-03-23T08:15:19;10.35;;;3.85;;
21315;SDS011;10817;55.820;13.030;2023-03-23T08:18:23;6.28;;;3.58;;
21315;SDS011;10817;55.820;13.030;2023-03-23T08:20:51;6.75;;;3.88;;
21315;SDS011;10817;55.820;13.030;2023-03-23T08:23:47;9.60;;;3.75;;
21315;SDS011;10817;55.820;13.030;2023-03-23T08:26:27;7.13;;;3.42;;
21315;SDS011;10817;55.820;13.030;2023-03-23T08:28:54;6.85;;;3.70;;
21315;SDS011;10817;55.820;13.030;2023-03-23T08:31:41;7.40;;;4.03;;
21315;SDS011;10817;55.820;13.030;2023-03-23T08:34:29;10.98;;;3.90;;
21315;SDS011;10817;55.820;13.030;2023-03-23T08:37:06;6.78;;;2.92;;
21315;SDS011;10817;55.820;13.030;2023-03-23T08:39:39;6.68;;;3.33;;
21315;SDS011;10817;55.820;13.030;2023-03-23T08:42:08;10.00;;;3.20;;
21315;SDS011;10817;55.820;13.030;2023-03-23T08:44:57;6.15;;;3.33;;
21315;SDS011;10817;55.820;13.030;2023-03-23T08:47:49;5.10;;;2.88;;
21315;SDS011;10817;55.820;13.030;2023-03-23T08:50:19;4.00;;;2.83;;
21315;SDS011;10817;55.820;13.030;2023-03-23T08:53:08;2.70;;;1.90;;
21315;SDS011;10817;55.820;13.030;2023-03-23T08:55:47;4.38;;;1.80;;
21315;SDS011;10817;55.820;13.030;2023-03-23T08:58:14;3.28;;;2.42;;
21315;SDS011;10817;55.820;13.030;2023-03-23T09:00:54;6.65;;;3.15;;
21315;SDS011;10817;55.820;13.030;2023-03-23T09:03:47;6.15;;;3.70;;
21315;SDS011;10817;55.820;13.030;2023-03-23T09:06:35;9.80;;;4.75;;
21315;SDS011;10817;55.820;13.030;2023-03-23T09:09:03;9.55;;;4.47;;
21315;SDS011;10817;55.820;13.030;2023-03-23T09:11:32;10.80;;;4.40;;
21315;SDS011;10817;55.820;13.030;2023-03-23T09:13:59;11.80;;;5.40;;
21315;SDS011;10817;55.820;13.030;2023-03-23T09:16:27;9.38;;;4.25;;
21315;SDS011;10817;55.820;13.030;2023-03-23T09:18:54;9.40;;;3.58;;
21315;SDS011;10817;55.820;13.030;2023-03-23T09:21:22;5.97;;;2.97;;
21315;SDS011;10817;55.820;13.030;2023-03-23T09:23:51;5.45;;;3.55;;
21315;SDS011;10817;55.820;13.030;2023-03-23T09:26:21;9.80;;;5.30;;
21315;SDS011;10817;55.820;13.030;2023-03-23T09:28:49;9.38;;;4.80;;
21315;SDS011;10817;55.820;13.030;2023-03-23T09:31:17;6.80;;;4.20;;
21315;SDS011;10817;55.820;13.030;2023-03-23T09:33:45;10.25;;;4.35;;
21315;SDS011;10817;55.820;13.030;2023-03-23T09:36:16;13.90;;;4.47;;
21315;SDS011;10817;55.820;13.030;2023-03-23T09:38:46;6.70;;;4.00;;
21315;SDS011;10817;55.820;13.030;2023-03-23T09:41:19;9.27;;;3.47;;
21315;SDS011;10817;55.820;13.030;2023-03-23T09:43:53;8.52;;;4.15;;
21315;SDS011;10817;55.820;13.030;2023-03-23T09:46:29;13.95;;;4.63;;
21315;SDS011;10817;55.820;13.030;2023-03-23T09:49:01;6.65;;;3.78;;
21315;SDS011;10817;55.820;13.030;2023-03-23T09:51:32;9.07;;;4.20;;
21315;SDS011;10817;55.820;13.030;2023-03-23T09:54:04;6.00;;;3.58;;
21315;SDS011;10817;55.820;13.030;2023-03-23T09:56:36;10.13;;;3.70;;
21315;SDS011;10817;55.820;13.030;2023-03-23T09:59:05;7.68;;;3.38;;
21315;SDS011;10817;55.820;13.030;2023-03-23T10:01:38;5.75;;;2.63;;
21315;SDS011;10817;55.820;13.030;2023-03-23T10:04:08;7.68;;;2.85;;
21315;SDS011;10817;55.820;13.030;2023-03-23T10:06:37;7.70;;;3.30;;
21315;SDS011;10817;55.820;13.030;2023-03-23T10:09:04;7.20;;;2.30;;
21315;SDS011;10817;55.820;13.030;2023-03-23T10:11:37;4.82;;;1.67;;
21315;SDS011;10817;55.820;13.030;2023-03-23T10:14:13;4.70;;;1.58;;
21315;SDS011;10817;55.820;13.030;2023-03-23T10:16:42;4.53;;;1.95;;
21315;SDS011;10817;55.820;13.030;2023-03-23T10:19:15;5.15;;;1.42;;
21315;SDS011;10817;55.820;13.030;2023-03-23T10:21:46;4.22;;;1.30;;
21315;SDS011;10817;55.820;13.030;2023-03-23T10:24:15;5.15;;;1.30;;
21315;SDS011;10817;55.820;13.030;2023-03-23T10:26:46;7.40;;;1.60;;
21315;SDS011;10817;55.820;13.030;2023-03-23T10:29:16;6.05;;;2.00;;
21315;SDS011;10817;55.820;13.030;2023-03-23T10:31:45;8.55;;;1.83;;
21315;SDS011;10817;55.820;13.030;2023-03-23T10:34:16;6.63;;;1.95;;
21315;SDS011;10817;55.820;13.030;2023-03-23T10:36:51;3.15;;;1.90;;
21315;SDS011;10817;55.820;13.030;2023-03-23T10:39:20;7.95;;;2.13;;
21315;SDS011;10817;55.820;13.030;2023-03-23T10:41:49;5.13;;;2.75;;
21315;SDS011;10817;55.820;13.030;2023-03-23T10:44:18;7.55;;;3.65;;
21315;SDS011;10817;55.820;13.030;2023-03-23T10:46:48;6.28;;;4.03;;
21315;SDS011;10817;55.820;13.030;2023-03-23T10:49:19;5.32;;;4.03;;
21315;SDS011;10817;55.820;13.030;2023-03-23T10:51:56;9.43;;;5.07;;
21315;SDS011;10817;55.820;13.030;2023-03-23T10:54:25;8.30;;;5.63;;
21315;SDS011;10817;55.820;13.030;2023-03-23T10:56:54;14.45;;;6.43;;
21315;SDS011;10817;55.820;13.030;2023-03-23T10:59:25;13.50;;;7.70;;
21315;SDS011;10817;55.820;13.030;2023-03-23T11:01:54;16.95;;;8.27;;
21315;SDS011;10817;55.820;13.030;2023-03-23T11:04:22;17.02;;;9.82;;
21315;SDS011;10817;55.820;13.030;2023-03-23T11:06:51;25.95;;;10.73;;
21315;SDS011;10817;55.820;13.030;2023-03-23T11:09:19;19.98;;;10.68;;
21315;SDS011;10817;55.820;13.030;2023-03-23T11:11:48;25.95;;;12.52;;
21315;SDS011;10817;55.820;13.030;2023-03-23T11:14:18;17.52;;;11.60;;
21315;SDS011;10817;55.820;13.030;2023-03-23T11:16:49;20.02;;;10.63;;
21315;SDS011;10817;55.820;13.030;2023-03-23T11:19:21;19.70;;;11.93;;
21315;SDS011;10817;55.820;13.030;2023-03-23T11:21:49;23.45;;;13.27;;
21315;SDS011;10817;55.820;13.030;2023-03-23T11:24:17;28.65;;;15.48;;
21315;SDS011;10817;55.820;13.030;2023-03-23T11:26:45;17.92;;;13.00;;
21315;SDS011;10817;55.820;13.030;2023-03-23T11:29:13;14.85;;;10.10;;
21315;SDS011;10817;55.820;13.030;2023-03-23T11:31:43;11.68;;;6.75;;
21315;SDS011;10817;55.820;13.030;2023-03-23T11:34:13;10.60;;;6.80;;
21315;SDS011;10817;55.820;13.030;2023-03-23T11:36:41;12.32;;;6.70;;
21315;SDS011;10817;55.820;13.030;2023-03-23T11:39:19;10.50;;;5.80;;
21315;SDS011;10817;55.820;13.030;2023-03-23T11:41:47;8.43;;;5.30;;
21315;SDS011;10817;55.820;13.030;2023-03-23T11:44:14;9.80;;;6.03;;
21315;SDS011;10817;55.820;13.030;2023-03-23T11:46:46;11.25;;;5.50;;
21315;SDS011;10817;55.820;13.030;2023-03-23T11:49:18;11.27;;;5.13;;
21315;SDS011;10817;55.820;13.030;2023-03-23T11:51:48;7.70;;;4.45;;
21315;SDS011;10817;55.820;13.030;2023-03-23T11:54:17;8.65;;;3.80;;
21315;SDS011;10817;55.820;13.030;2023-03-23T11:56:45;5.88;;;3.20;;
21315;SDS011;10817;55.820;13.030;2023-03-23T11:59:13;7.45;;;2.58;;
21315;SDS011;10817;55.820;13.030;2023-03-23T12:01:46;7.05;;;2.40;;
21315;SDS011;10817;55.820;13.030;2023-03-23T12:04:19;6.75;;;2.47;;
21315;SDS011;10817;55.820;13.030;2023-03-23T12:06:51;4.43;;;2.33;;
21315;SDS011;10817;55.820;13.030;2023-03-23T12:09:24;5.82;;;2.30;;
21315;SDS011;10817;55.820;13.030;2023-03-23T12:11:56;7.20;;;2.08;;
21315;SDS011;10817;55.820;13.030;2023-03-23T12:14:28;6.78;;;2.55;;
21315;SDS011;10817;55.820;13.030;2023-03-23T12:17:00;11.45;;;2.70;;
21315;SDS011;10817;55.820;13.030;2023-03-23T12:19:33;10.95;;;2.85;;
21315;SDS011;10817;55.820;13.030;2023-03-23T12:22:04;7.78;;;2.63;;
21315;SDS011;10817;55.820;13.030;2023-03-23T12:24:43;7.78;;;2.38;;
21315;SDS011;10817;55.820;13.030;2023-03-23T12:27:12;8.38;;;2.55;;
21315;SDS011;10817;55.820;13.030;2023-03-23T12:29:45;9.27;;;2.45;;
21315;SDS011;10817;55.820;13.030;2023-03-23T12:32:22;6.70;;;2.17;;
21315;SDS011;10817;55.820;13.030;2023-03-23T12:34:53;8.38;;;2.30;;
21315;SDS011;10817;55.820;13.030;2023-03-23T12:37:25;6.72;;;1.80;;
21315;SDS011;10817;55.820;13.030;2023-03-23T12:40:00;10.23;;;2.38;;
21315;SDS011;10817;55.820;13.030;2023-03-23T12:42:32;8.93;;;2.20;;
21315;SDS011;10817;55.820;13.030;2023-03-23T12:45:04;10.27;;;2.40;;
21315;SDS011;10817;55.820;13.030;2023-03-23T12:47:35;9.02;;;2.47;;
21315;SDS011;10817;55.820;13.030;2023-03-23T12:50:05;7.38;;;2.00;;
21315;SDS011;10817;55.820;13.030;2023-03-23T12:52:37;10.27;;;2.17;;
21315;SDS011;10817;55.820;13.030;2023-03-23T12:55:07;7.65;;;2.03;;
21315;SDS011;10817;55.820;13.030;2023-03-23T12:57:41;13.18;;;3.10;;
21315;SDS011;10817;55.820;13.030;2023-03-23T13:00:12;11.57;;;2.47;;
21315;SDS011;10817;55.820;13.030;2023-03-23T13:02:44;11.40;;;2.28;;
21315;SDS011;10817;55.820;13.030;2023-03-23T13:05:25;8.57;;;2.30;;
21315;SDS011;10817;55.820;13.030;2023-03-23T13:07:55;12.15;;;2.78;;
21315;SDS011;10817;55.820;13.030;2023-03-23T13:10:25;16.20;;;2.88;;
21315;SDS011;10817;55.820;13.030;2023-03-23T13:12:53;19.40;;;3.72;;
21315;SDS011;10817;55.820;13.030;2023-03-23T13:15:26;11.32;;;2.72;;
21315;SDS011;10817;55.820;13.030;2023-03-23T13:17:58;17.00;;;4.07;;
21315;SDS011;10817;55.820;13.030;2023-03-23T13:20:31;17.98;;;2.92;;
21315;SDS011;10817;55.820;13.030;2023-03-23T13:23:00;12.40;;;2.90;;
21315;SDS011;10817;55.820;13.030;2023-03-23T13:25:35;10.02;;;2.22;;
21315;SDS011;10817;55.820;13.030;2023-03-23T13:28:04;9.45;;;2.33;;
21315;SDS011;10817;55.820;13.030;2023-03-23T13:30:31;9.00;;;2.30;;
21315;SDS011;10817;55.820;13.030;2023-03-23T13:33:03;9.40;;;2.30;;
21315;SDS011;10817;55.820;13.030;2023-03-23T13:35:35;13.88;;;3.28;;
21315;SDS011;10817;55.820;13.030;2023-03-23T13:38:10;12.38;;;2.45;;
21315;SDS011;10817;55.820;13.030;2023-03-23T13:40:41;13.02;;;2.72;;
21315;SDS011;10817;55.820;13.030;2023-03-23T13:43:09;9.02;;;2.40;;
21315;SDS011;10817;55.820;13.030;2023-03-23T13:45:42;13.57;;;2.75;;
21315;SDS011;10817;55.820;13.030;2023-03-23T13:48:19;11.32;;;2.38;;
21315;SDS011;10817;55.820;13.030;2023-03-23T13:50:51;14.13;;;3.47;;
21315;SDS011;10817;55.820;13.030;2023-03-23T13:53:23;9.20;;;2.28;;
21315;SDS011;10817;55.820;13.030;2023-03-23T13:55:51;9.80;;;2.67;;
21315;SDS011;10817;55.820;13.030;2023-03-23T13:58:22;9.70;;;2.35;;
21315;SDS011;10817;55.820;13.030;2023-03-23T14:00:50;10.40;;;2.30;;
21315;SDS011;10817;55.820;13.030;2023-03-23T14:03:24;15.88;;;2.83;;
21315;SDS011;10817;55.820;13.030;2023-03-23T14:06:01;12.35;;;2.60;;
21315;SDS011;10817;55.820;13.030;2023-03-23T14:08:39;12.10;;;3.00;;
21315;SDS011;10817;55.820;13.030;2023-03-23T14:11:11;12.88;;;2.63;;
21315;SDS011;10817;55.820;13.030;2023-03-23T14:13:40;13.30;;;2.85;;
21315;SDS011;10817;55.820;13.030;2023-03-23T14:16:13;9.82;;;2.28;;
21315;SDS011;10817;55.820;13.030;2023-03-23T14:18:47;11.18;;;2.38;;
21315;SDS011;10817;55.820;13.030;2023-03-23T14:21:22;10.52;;;2.63;;
21315;SDS011;10817;55.820;13.030;2023-03-23T14:23:49;12.55;;;2.83;;
21315;SDS011;10817;55.820;13.030;2023-03-23T14:26:17;8.05;;;2.28;;
21315;SDS011;10817;55.820;13.030;2023-03-23T14:28:45;8.57;;;2.38;;
21315;SDS011;10817;55.820;13.030;2023-03-23T14:31:15;8.55;;;2.35;;
21315;SDS011;10817;55.820;13.030;2023-03-23T14:33:44;12.98;;;2.80;;
21315;SDS011;10817;55.820;13.030;2023-03-23T14:36:13;12.05;;;2.28;;
21315;SDS011;10817;55.820;13.030;2023-03-23T14:38:40;10.25;;;2.85;;
21315;SDS011;10817;55.820;13.030;2023-03-23T14:41:10;10.05;;;2.25;;
21315;SDS011;10817;55.820;13.030;2023-03-23T14:43:38;10.52;;;2.33;;
21315;SDS011;10817;55.820;13.030;2023-03-23T14:46:06;9.52;;;2.03;;
21315;SDS011;10817;55.820;13.030;2023-03-23T14:48:34;12.07;;;2.78;;